Time;durP1;ratioP1;P1;durP2;ratioP2;P2;SDS_P1;SDS_P2;PMS_P1;PMS_P2;Temp;Humidity;BMP_temperature;BMP_pressure;BME280_temperature;BME280_humidity;BME280_pressure;Samples;Min_cycle;Max_cycle;Signal;HPM_P1;HPM_P2
2022/01/17 00:01:06;;;;;;;28.15;15.60;;;1.70;99.90;;;;;;4877850;29;20063;-79
2022/01/17 00:03:57;;;;;;;30.10;14.40;;;1.70;99.90;;;;;;4863274;29;20049;-80
2022/01/17 00:06:44;;;;;;;27.38;15.15;;;1.70;99.90;;;;;;4868390;29;20364;-82
2022/01/17 00:09:32;;;;;;;26.48;14.35;;;1.80;99.90;;;;;;4858313;29;20052;-82
2022/01/17 00:12:19;;;;;;;24.17;14.20;;;1.80;99.90;;;;;;4856130;29;20129;-80
2022/01/17 00:15:29;;;;;;;22.52;13.38;;;1.80;99.90;;;;;;4875206;29;20057;-80
2022/01/17 00:21:07;;;;;;;23.63;13.88;;;1.80;99.90;;;;;;4880668;29;20075;-81
2022/01/17 00:23:55;;;;;;;22.98;13.88;;;1.80;99.90;;;;;;4843015;29;20076;-81
2022/01/17 00:26:52;;;;;;;25.98;14.77;;;1.90;99.90;;;;;;4878425;29;20147;-80
2022/01/17 00:29:47;;;;;;;22.13;13.27;;;1.90;99.90;;;;;;4877732;29;20053;-79
2022/01/17 00:33:02;;;;;;;22.58;13.02;;;1.90;99.90;;;;;;4854797;29;20049;-79
2022/01/17 00:35:50;;;;;;;22.60;13.95;;;1.90;99.90;;;;;;4873284;29;20052;-82
2022/01/17 00:38:37;;;;;;;20.88;13.60;;;1.90;99.90;;;;;;4855846;29;20053;-80
2022/01/17 00:41:29;;;;;;;24.20;14.02;;;2.00;99.90;;;;;;4863635;29;20154;-81
2022/01/17 00:44:21;;;;;;;23.02;13.98;;;2.00;99.90;;;;;;4869153;29;20139;-79
2022/01/17 00:47:09;;;;;;;18.30;11.27;;;1.90;99.90;;;;;;4847808;29;20223;-78
2022/01/17 00:49:56;;;;;;;24.55;15.18;;;1.90;99.90;;;;;;4867314;29;20057;-80
2022/01/17 00:52:44;;;;;;;26.63;15.40;;;1.90;99.90;;;;;;4858222;29;20048;-79
2022/01/17 00:55:36;;;;;;;24.52;15.27;;;1.90;99.90;;;;;;4857790;29;20056;-79
2022/01/17 00:58:25;;;;;;;30.75;17.35;;;1.80;99.90;;;;;;4878637;29;20057;-81
2022/01/17 01:01:15;;;;;;;26.75;14.93;;;1.80;99.90;;;;;;4869831;29;20056;-80
2022/01/17 01:04:03;;;;;;;26.75;16.42;;;1.80;99.90;;;;;;4852737;29;20482;-80
2022/01/17 01:06:50;;;;;;;28.83;16.33;;;1.80;99.90;;;;;;4863141;29;20128;-79
2022/01/17 01:09:48;;;;;;;29.55;16.70;;;1.80;99.90;;;;;;4859247;29;20060;-80
2022/01/17 01:12:36;;;;;;;24.85;15.63;;;1.80;99.90;;;;;;4851434;29;20060;-81
2022/01/17 01:28:00;;;;;;;28.67;15.57;;;1.80;99.90;;;;;;4879260;29;20014;-79
2022/01/17 01:30:53;;;;;;;25.25;15.63;;;1.70;99.90;;;;;;4877967;29;20139;-80
2022/01/17 01:33:54;;;;;;;29.27;16.58;;;1.70;99.90;;;;;;4884341;29;20613;-80
2022/01/17 01:36:47;;;;;;;26.75;15.73;;;1.70;99.90;;;;;;4879819;29;20481;-79
2022/01/17 01:39:37;;;;;;;;;;;1.70;99.90;;;;;;4866477;29;20082;-78
2022/01/17 01:42:29;;;;;;;28.42;15.80;;;1.60;99.90;;;;;;4883206;29;19939;-80
2022/01/17 01:45:20;;;;;;;27.45;16.10;;;1.60;99.90;;;;;;4869234;29;20472;-79
2022/01/17 01:48:08;;;;;;;26.85;17.15;;;1.60;99.90;;;;;;4848958;29;20046;-78
2022/01/17 01:50:56;;;;;;;29.23;17.13;;;1.60;99.90;;;;;;4886641;29;20432;-81
2022/01/17 01:53:46;;;;;;;30.33;18.45;;;1.60;99.90;;;;;;4867673;29;20066;-80
2022/01/17 01:56:39;;;;;;;34.20;17.83;;;1.50;99.90;;;;;;4856905;29;20124;-79
2022/01/17 01:59:26;;;;;;;;;;;1.50;99.90;;;;;;4872395;29;20048;-79
2022/01/17 02:02:13;;;;;;;31.15;16.50;;;1.50;99.90;;;;;;4870049;29;19923;-80
2022/01/17 02:05:04;;;;;;;29.88;17.10;;;1.40;99.90;;;;;;4866114;29;20045;-79
2022/01/17 02:07:51;;;;;;;30.60;18.00;;;1.40;99.90;;;;;;4870274;29;20052;-79
2022/01/17 02:10:39;;;;;;;33.80;19.23;;;1.40;99.90;;;;;;4868754;29;20049;-80
2022/01/17 02:13:29;;;;;;;30.48;17.23;;;1.40;99.90;;;;;;4872321;29;20061;-79
2022/01/17 02:16:16;;;;;;;31.70;17.85;;;1.40;99.90;;;;;;4869923;29;20079;-80
2022/01/17 02:19:09;;;;;;;31.02;15.60;;;1.40;99.90;;;;;;4881623;29;20059;-78
2022/01/17 02:21:57;;;;;;;32.35;18.00;;;1.40;99.90;;;;;;4871609;29;20052;-79
2022/01/17 02:24:47;;;;;;;30.58;16.92;;;1.40;99.90;;;;;;4876567;29;20145;-79
2022/01/17 02:27:34;;;;;;;29.77;18.00;;;1.40;99.90;;;;;;4876519;29;20061;-80
2022/01/17 02:30:26;;;;;;;40.63;17.92;;;1.40;99.90;;;;;;4880715;29;20550;-77
2022/01/17 02:33:13;;;;;;;28.77;17.70;;;1.40;99.90;;;;;;4884435;29;20151;-79
2022/01/17 02:36:02;;;;;;;30.02;16.70;;;1.40;99.90;;;;;;4862622;29;20094;-78
2022/01/17 02:38:52;;;;;;;28.05;16.52;;;1.40;99.90;;;;;;4875644;29;20041;-79
2022/01/17 02:41:46;;;;;;;29.15;16.02;;;1.40;99.90;;;;;;4882776;29;20148;-79
2022/01/17 02:44:33;;;;;;;29.75;17.25;;;1.40;99.90;;;;;;4868034;29;20488;-79
2022/01/17 02:47:23;;;;;;;31.80;17.48;;;1.50;99.90;;;;;;4862095;29;20057;-79
2022/01/17 02:50:10;;;;;;;30.08;17.27;;;1.50;99.90;;;;;;4856343;29;20056;-79
2022/01/17 02:53:03;;;;;;;27.95;16.73;;;1.50;99.90;;;;;;4879437;29;20053;-79
2022/01/17 02:55:52;;;;;;;30.70;16.35;;;1.50;99.90;;;;;;4884808;29;20189;-77
2022/01/17 02:58:43;;;;;;;31.23;17.15;;;1.50;99.90;;;;;;4878268;29;20068;-79
2022/01/17 03:01:31;;;;;;;27.30;16.23;;;1.50;99.90;;;;;;4866329;29;20221;-79
2022/01/17 03:04:21;;;;;;;28.75;15.93;;;1.60;99.90;;;;;;4881549;29;20049;-80
2022/01/17 03:07:09;;;;;;;30.45;16.40;;;1.60;99.90;;;;;;4887034;29;20584;-80
2022/01/17 03:10:02;;;;;;;27.05;15.25;;;1.60;99.90;;;;;;4858128;29;20439;-78
2022/01/17 03:12:52;;;;;;;28.50;16.15;;;1.60;99.90;;;;;;4854464;29;20049;-79
2022/01/17 03:15:43;;;;;;;28.85;15.82;;;1.60;99.90;;;;;;4852801;29;20521;-79
2022/01/17 03:18:36;;;;;;;26.17;14.43;;;1.60;99.90;;;;;;4878098;29;20049;-80
2022/01/17 03:21:27;;;;;;;24.88;14.35;;;1.70;99.90;;;;;;4868065;29;20053;-80
2022/01/17 03:24:14;;;;;;;23.73;13.75;;;1.70;99.90;;;;;;4865158;29;20045;-79
2022/01/17 03:27:04;;;;;;;23.55;13.60;;;1.70;99.90;;;;;;4875502;29;20132;-78
2022/01/17 03:29:52;;;;;;;24.25;13.95;;;1.70;99.90;;;;;;4876270;29;20397;-78
2022/01/17 03:32:44;;;;;;;20.90;13.30;;;1.70;99.90;;;;;;4858406;29;20151;-79
2022/01/17 03:35:31;;;;;;;22.02;13.07;;;1.60;99.90;;;;;;4861676;29;20052;-78
2022/01/17 03:38:24;;;;;;;25.25;14.02;;;1.60;99.90;;;;;;4877282;29;20216;-80
2022/01/17 03:41:14;;;;;;;27.33;14.50;;;1.60;99.90;;;;;;4859343;29;20170;-80
2022/01/17 03:44:01;;;;;;;25.55;13.90;;;1.70;99.90;;;;;;4864055;29;20146;-79
2022/01/17 03:46:51;;;;;;;24.25;13.38;;;1.60;99.90;;;;;;4863655;29;20053;-79
2022/01/17 03:49:39;;;;;;;25.33;13.30;;;1.70;99.90;;;;;;4871473;29;20041;-80
2022/01/17 03:52:27;;;;;;;25.27;12.98;;;1.70;99.90;;;;;;4866982;29;20050;-79
2022/01/17 03:55:17;;;;;;;23.60;13.52;;;1.70;99.90;;;;;;4864784;29;20045;-80
2022/01/17 03:58:06;;;;;;;24.00;13.27;;;1.70;99.90;;;;;;4875643;29;20053;-79
2022/01/17 04:00:57;;;;;;;23.85;12.52;;;1.80;99.90;;;;;;4865223;29;20047;-79
2022/01/17 04:03:47;;;;;;;21.83;12.20;;;1.80;99.90;;;;;;4877910;29;20045;-79
2022/01/17 04:06:36;;;;;;;19.88;11.80;;;1.90;99.90;;;;;;4866935;29;20082;-80
2022/01/17 04:09:28;;;;;;;20.98;11.98;;;1.90;99.90;;;;;;4869942;29;20041;-79
2022/01/17 04:12:16;;;;;;;18.73;10.88;;;2.00;99.90;;;;;;4872067;29;20084;-81
2022/01/17 04:15:07;;;;;;;17.77;11.13;;;1.90;99.90;;;;;;4865291;29;20049;-80
2022/01/17 04:18:08;;;;;;;23.00;12.73;;;1.90;99.90;;;;;;4869886;29;20081;-79
2022/01/17 04:21:02;;;;;;;24.15;12.65;;;1.80;99.90;;;;;;4878859;29;20109;-79
2022/01/17 04:23:49;;;;;;;22.20;12.73;;;1.80;99.90;;;;;;4871397;29;20048;-80
2022/01/17 04:26:37;;;;;;;28.63;14.23;;;1.70;99.90;;;;;;4851211;29;20048;-79
2022/01/17 04:29:27;;;;;;;26.52;14.93;;;1.60;99.90;;;;;;4872238;29;20061;-77
2022/01/17 04:32:14;;;;;;;24.42;14.63;;;1.60;99.90;;;;;;4851731;29;20188;-80
2022/01/17 04:35:04;;;;;;;25.30;13.60;;;1.60;99.90;;;;;;4880069;29;20131;-80
2022/01/17 04:37:58;;;;;;;27.02;16.02;;;1.60;99.90;;;;;;4857462;29;20084;-79
2022/01/17 04:40:58;;;;;;;24.83;14.02;;;1.60;99.90;;;;;;4862675;29;20493;-78
2022/01/17 04:43:58;;;;;;;31.48;16.77;;;1.60;99.90;;;;;;4874165;29;20756;-80
2022/01/17 04:47:01;;;;;;;30.63;15.68;;;1.60;99.90;;;;;;4862697;29;20068;-78
2022/01/17 04:49:49;;;;;;;28.83;16.15;;;1.60;99.90;;;;;;4874442;29;20104;-78
2022/01/17 04:52:37;;;;;;;28.70;15.45;;;1.60;99.90;;;;;;4863566;29;20140;-80
2022/01/17 04:55:30;;;;;;;27.48;17.20;;;1.60;99.90;;;;;;4875145;29;20125;-79
2022/01/17 04:58:18;;;;;;;26.77;15.60;;;1.60;99.90;;;;;;4881356;29;20048;-80
2022/01/17 05:01:05;;;;;;;25.67;15.57;;;1.60;99.90;;;;;;4864453;29;20044;-79
2022/01/17 05:03:52;;;;;;;27.83;15.73;;;1.60;99.90;;;;;;4858862;29;20053;-79
2022/01/17 05:06:41;;;;;;;34.97;18.60;;;1.60;99.90;;;;;;4850313;29;20140;-79
2022/01/17 05:09:34;;;;;;;38.42;19.80;;;1.60;99.90;;;;;;4880511;29;20109;-79
2022/01/17 05:12:27;;;;;;;33.03;17.83;;;1.60;99.90;;;;;;4874868;29;20080;-79
2022/01/17 05:21:12;;;;;;;30.70;16.58;;;1.60;99.90;;;;;;4873913;29;20372;-79
2022/01/17 05:24:00;;;;;;;32.38;17.65;;;1.60;99.90;;;;;;4883426;29;20041;-79
2022/01/17 05:26:50;;;;;;;30.73;16.98;;;1.70;99.90;;;;;;4855681;29;20444;-81
2022/01/17 05:29:42;;;;;;;38.75;17.52;;;1.70;99.90;;;;;;4852455;29;20060;-81
2022/01/17 05:32:31;;;;;;;30.90;17.00;;;1.70;99.90;;;;;;4874347;29;20053;-77
2022/01/17 05:35:20;;;;;;;29.10;16.02;;;1.80;99.90;;;;;;4863227;29;20139;-79
2022/01/17 05:59:54;;;;;;;26.75;12.93;;;2.00;99.90;;;;;;4817188;29;20409;-80
2022/01/17 06:03:32;;;;;;;20.98;12.93;;;2.10;99.90;;;;;;4815136;29;20435;-81
2022/01/17 06:10:42;;;;;;;21.80;12.00;;;2.20;99.90;;;;;;4775466;30;20048;-79
2022/01/17 06:13:29;;;;;;;24.27;13.40;;;2.20;99.90;;;;;;4833922;29;20212;-81
2022/01/17 06:16:19;;;;;;;23.02;12.27;;;2.20;99.90;;;;;;4855449;29;20124;-81
2022/01/17 06:19:06;;;;;;;20.95;13.13;;;2.20;99.90;;;;;;4860549;29;20690;-81
2022/01/17 06:21:53;;;;;;;23.45;13.02;;;2.20;99.90;;;;;;4861372;29;20138;-82
2022/01/17 06:24:42;;;;;;;23.08;12.40;;;2.20;99.90;;;;;;4876292;29;20053;-81
2022/01/17 06:27:31;;;;;;;20.00;11.35;;;2.20;99.90;;;;;;4869052;29;20456;-80
2022/01/17 06:30:22;;;;;;;22.30;12.50;;;2.20;99.90;;;;;;4881966;29;20057;-81
2022/01/17 06:33:21;;;;;;;21.10;11.75;;;2.20;99.90;;;;;;4867108;29;20045;-82
2022/01/17 06:36:13;;;;;;;17.80;11.63;;;2.20;99.90;;;;;;4865769;29;20156;-80
2022/01/17 06:39:00;;;;;;;18.30;9.95;;;2.20;99.90;;;;;;4876768;29;20345;-81
2022/01/17 06:41:50;;;;;;;18.65;10.23;;;2.20;99.90;;;;;;4884062;29;20063;-80
2022/01/17 06:44:41;;;;;;;17.30;10.32;;;2.20;99.90;;;;;;4861356;29;20041;-81
2022/01/17 06:47:31;;;;;;;19.23;10.98;;;2.20;99.90;;;;;;4879093;29;20117;-81
2022/01/17 06:50:21;;;;;;;17.25;11.00;;;2.30;99.90;;;;;;4869464;29;20063;-81
2022/01/17 06:53:09;;;;;;;20.42;11.82;;;2.20;99.90;;;;;;4867294;29;20072;-80
2022/01/17 06:55:57;;;;;;;23.77;13.40;;;2.20;99.90;;;;;;4882077;29;20048;-81
2022/01/17 06:58:44;;;;;;;19.98;12.52;;;2.20;99.90;;;;;;4867584;29;20507;-81
2022/01/17 07:01:42;;;;;;;22.33;12.60;;;2.20;99.90;;;;;;4874884;29;20045;-80
2022/01/17 07:04:31;;;;;;;23.10;12.32;;;2.20;99.90;;;;;;4856121;29;20368;-79
2022/01/17 07:07:21;;;;;;;24.65;12.88;;;2.20;99.90;;;;;;4865862;29;20132;-82
2022/01/17 07:10:17;;;;;;;24.70;13.77;;;2.20;99.90;;;;;;4875362;29;20049;-82
2022/01/17 07:13:04;;;;;;;27.65;13.98;;;2.10;99.90;;;;;;4855441;29;20480;-82
2022/01/17 07:15:56;;;;;;;23.35;14.48;;;2.10;99.90;;;;;;4864107;29;20085;-81
2022/01/17 07:18:45;;;;;;;21.23;13.35;;;2.10;99.90;;;;;;4870657;29;20069;-82
2022/01/17 07:21:34;;;;;;;23.27;13.30;;;2.10;99.90;;;;;;4880747;29;20045;-82
2022/01/17 07:24:21;;;;;;;22.45;13.00;;;2.10;99.90;;;;;;4854545;29;20048;-84
2022/01/17 07:27:11;;;;;;;21.33;13.73;;;2.10;99.90;;;;;;4871709;29;20049;-82
2022/01/17 07:29:58;;;;;;;21.58;12.20;;;2.10;99.90;;;;;;4883480;29;20044;-81
2022/01/17 07:32:46;;;;;;;21.58;12.55;;;2.20;99.90;;;;;;4861565;29;20049;-83
2022/01/17 07:35:35;;;;;;;20.73;13.13;;;2.20;99.90;;;;;;4862920;29;20116;-83
2022/01/17 07:38:22;;;;;;;22.15;13.65;;;2.20;99.90;;;;;;4872125;29;20041;-83
2022/01/17 07:41:09;;;;;;;20.92;12.10;;;2.10;99.90;;;;;;4877421;29;20058;-81
2022/01/17 07:44:24;;;;;;;17.00;11.65;;;2.10;99.90;;;;;;4876134;29;20059;-80
2022/01/17 07:47:18;;;;;;;21.77;12.80;;;2.10;99.90;;;;;;4887971;29;20044;-84
2022/01/17 07:50:11;;;;;;;21.42;11.55;;;2.10;99.90;;;;;;4857201;29;20556;-84
2022/01/17 07:52:59;;;;;;;20.83;11.68;;;2.10;99.90;;;;;;4865885;29;20049;-83
2022/01/17 07:55:50;;;;;;;18.92;11.02;;;2.10;99.90;;;;;;4856768;29;20081;-84
2022/01/17 07:58:38;;;;;;;21.17;12.15;;;2.10;99.90;;;;;;4872853;29;20064;-84
2022/01/17 08:01:26;;;;;;;19.33;12.65;;;2.00;99.90;;;;;;4856595;29;20045;-83
2022/01/17 08:04:23;;;;;;;20.60;12.52;;;2.10;99.90;;;;;;4879228;29;20390;-83
2022/01/17 08:07:12;;;;;;;21.17;12.98;;;2.10;99.90;;;;;;4866833;29;20045;-82
2022/01/17 08:10:03;;;;;;;21.13;13.43;;;2.10;99.90;;;;;;4868039;29;20049;-82
2022/01/17 08:12:50;;;;;;;21.98;13.35;;;2.10;99.90;;;;;;4860313;29;20367;-82
2022/01/17 08:15:39;;;;;;;27.05;13.73;;;2.20;99.90;;;;;;4854464;29;20060;-81
2022/01/17 08:18:30;;;;;;;23.17;12.95;;;2.20;99.90;;;;;;4859144;29;20056;-80
2022/01/17 08:21:19;;;;;;;22.33;13.30;;;2.20;99.90;;;;;;4863889;29;20371;-80
2022/01/17 08:24:07;;;;;;;20.67;13.40;;;2.30;99.90;;;;;;4883540;29;20076;-82
2022/01/17 08:27:00;;;;;;;23.58;13.30;;;2.30;99.90;;;;;;4883701;29;20053;-83
2022/01/17 08:29:51;;;;;;;25.05;14.02;;;2.30;99.90;;;;;;4852170;29;20060;-81
2022/01/17 08:33:01;;;;;;;23.95;13.30;;;2.40;99.90;;;;;;4871727;29;20052;-80
2022/01/17 08:35:49;;;;;;;21.08;13.05;;;2.40;99.90;;;;;;4869963;29;20178;-79
2022/01/17 08:38:57;;;;;;;20.73;12.75;;;2.50;99.90;;;;;;4884987;29;20329;-80
2022/01/17 08:41:48;;;;;;;25.98;12.93;;;2.50;99.90;;;;;;4869619;29;20119;-81
2022/01/17 08:44:48;;;;;;;21.20;13.05;;;2.50;99.90;;;;;;4870695;29;20053;-82
2022/01/17 08:47:36;;;;;;;23.48;12.75;;;2.50;99.90;;;;;;4879290;29;20124;-82
2022/01/17 08:50:29;;;;;;;24.55;13.55;;;2.50;99.90;;;;;;4888437;29;20068;-81
2022/01/17 08:53:20;;;;;;;19.50;11.57;;;2.60;99.90;;;;;;4871396;29;20105;-81
2022/01/17 08:56:10;;;;;;;17.77;11.13;;;2.70;99.90;;;;;;4871817;29;20049;-79
2022/01/17 08:59:01;;;;;;;20.08;11.35;;;2.80;99.90;;;;;;4847277;29;20037;-82
2022/01/17 09:01:49;;;;;;;16.25;10.40;;;3.20;99.90;;;;;;4884154;29;20152;-80
2022/01/17 09:04:41;;;;;;;18.52;10.93;;;3.60;99.90;;;;;;4889163;29;20045;-80
2022/01/17 09:07:30;;;;;;;16.63;9.93;;;4.00;99.90;;;;;;4874785;29;20421;-81
2022/01/17 09:10:17;;;;;;;17.23;9.90;;;4.00;99.90;;;;;;4874506;29;20061;-81
2022/01/17 09:13:07;;;;;;;16.70;10.23;;;4.30;99.90;;;;;;4874886;29;20048;-81
2022/01/17 09:15:57;;;;;;;17.35;10.73;;;4.40;99.90;;;;;;4888147;29;20056;-81
2022/01/17 09:18:44;;;;;;;15.35;9.65;;;4.60;99.90;;;;;;4859680;29;20064;-81
2022/01/17 09:21:32;;;;;;;14.55;9.68;;;4.60;99.90;;;;;;4882934;29;20056;-81
2022/01/17 09:24:25;;;;;;;18.25;10.13;;;4.50;99.90;;;;;;4869798;29;20063;-79
2022/01/17 09:27:16;;;;;;;17.10;10.25;;;4.30;99.90;;;;;;4869640;29;20056;-82
2022/01/17 09:30:12;;;;;;;16.27;10.30;;;4.20;99.90;;;;;;4885372;29;20045;-81
2022/01/17 09:33:03;;;;;;;17.08;9.23;;;4.20;99.90;;;;;;4867128;29;20141;-81
2022/01/17 09:35:52;;;;;;;11.93;8.80;;;4.50;99.90;;;;;;4881134;29;20056;-81
2022/01/17 09:38:41;;;;;;;12.30;7.78;;;5.10;99.90;;;;;;4870735;29;20049;-82
2022/01/17 09:41:32;;;;;;;14.98;8.80;;;6.20;99.90;;;;;;4869522;29;20437;-81
2022/01/17 09:44:19;;;;;;;11.90;7.63;;;6.30;99.90;;;;;;4872660;29;20135;-82
2022/01/17 09:47:10;;;;;;;11.82;7.35;;;6.40;99.90;;;;;;4885234;29;20084;-80
2022/01/17 09:49:57;;;;;;;12.38;7.90;;;6.80;99.90;;;;;;4874315;29;20049;-81
2022/01/17 09:52:52;;;;;;;12.57;8.15;;;7.40;99.90;;;;;;4868707;29;20057;-81
2022/01/17 09:55:40;;;;;;;13.68;9.00;;;7.30;99.90;;;;;;4884535;29;20072;-80
2022/01/17 09:58:29;;;;;;;12.70;8.43;;;6.50;99.90;;;;;;4868600;29;20133;-80
2022/01/17 10:01:22;;;;;;;13.48;8.40;;;6.20;99.90;;;;;;4885490;29;20072;-82
2022/01/17 10:04:21;;;;;;;13.13;7.82;;;6.10;99.90;;;;;;4907238;29;20059;-81
2022/01/17 10:07:08;;;;;;;12.80;8.32;;;5.50;99.90;;;;;;4898152;29;20041;-83
2022/01/17 10:10:01;;;;;;;15.07;8.57;;;5.20;99.90;;;;;;4888436;29;20056;-81
2022/01/17 10:12:50;;;;;;;15.48;8.88;;;5.10;99.90;;;;;;4898427;29;20044;-82
2022/01/17 10:16:01;;;;;;;14.10;8.82;;;5.00;99.90;;;;;;4902541;29;20152;-84
2022/01/17 10:19:04;;;;;;;15.13;7.93;;;5.00;99.90;;;;;;4880633;29;20121;-83
2022/01/17 10:21:59;;;;;;;12.23;8.30;;;5.40;99.90;;;;;;4891464;29;20478;-82
2022/01/17 10:25:40;;;;;;;13.52;7.88;;;5.90;99.90;;;;;;4868816;29;20425;-83
2022/01/17 10:34:52;;;;;;;12.25;7.70;;;7.60;99.90;;;;;;4850292;29;20130;-80
2022/01/17 10:37:55;;;;;;;12.18;7.07;;;8.40;99.90;;;;;;4865543;29;20042;-82
2022/01/17 10:40:59;;;;;;;12.35;7.40;;;9.10;99.90;;;;;;4864040;29;20165;-81
2022/01/17 10:43:55;;;;;;;10.02;6.53;;;9.10;99.90;;;;;;4865372;29;20132;-81
2022/01/17 10:46:49;;;;;;;9.18;6.20;;;9.20;99.90;;;;;;4864449;29;20049;-80
2022/01/17 10:50:00;;;;;;;9.55;6.20;;;10.00;99.90;;;;;;4844301;29;20155;-80
2022/01/17 10:52:55;;;;;;;9.68;6.45;;;10.30;99.10;;;;;;4851590;29;20064;-81
2022/01/17 10:55:45;;;;;;;;;;;8.90;99.90;;;;;;4861532;29;20189;-80
2022/01/17 10:58:37;;;;;;;8.13;5.70;;;7.90;99.90;;;;;;4864362;29;19995;-80
2022/01/17 11:01:37;;;;;;;9.38;6.00;;;6.90;99.90;;;;;;4864813;29;20060;-80
2022/01/17 11:04:43;;;;;;;8.48;4.45;;;6.10;99.90;;;;;;4867184;29;20108;-80
2022/01/17 11:07:50;;;;;;;8.40;4.80;;;5.80;99.90;;;;;;4864982;29;20045;-80
2022/01/17 11:10:43;;;;;;;6.20;4.38;;;5.30;99.90;;;;;;4874700;29;20052;-79
2022/01/17 11:13:35;;;;;;;5.78;3.28;;;5.20;99.90;;;;;;4864080;29;20056;-80
2022/01/17 11:16:25;;;;;;;4.32;3.42;;;5.10;99.90;;;;;;4885685;29;20459;-84
2022/01/17 11:22:30;;;;;;;3.25;2.95;;;5.00;99.90;;;;;;4879404;29;20064;-80
2022/01/17 11:25:31;;;;;;;4.63;2.83;;;5.10;99.90;;;;;;4875436;29;20131;-79
2022/01/17 11:28:22;;;;;;;4.25;2.75;;;5.20;99.90;;;;;;4871027;29;20048;-79
2022/01/17 11:31:16;;;;;;;2.67;2.35;;;5.40;99.90;;;;;;4881146;29;20064;-80
2022/01/17 11:34:09;;;;;;;4.97;3.03;;;5.40;99.90;;;;;;4887748;29;20060;-80
2022/01/17 11:36:57;;;;;;;3.20;2.25;;;5.30;99.90;;;;;;4865381;29;20059;-79
2022/01/17 11:39:51;;;;;;;3.38;2.83;;;5.20;99.90;;;;;;4876669;29;20517;-81
2022/01/17 11:42:45;;;;;;;3.97;2.83;;;5.20;99.90;;;;;;4887037;29;20052;-80
2022/01/17 11:45:35;;;;;;;3.13;2.50;;;5.00;99.90;;;;;;4874818;29;20135;-81
2022/01/17 11:48:29;;;;;;;4.05;2.78;;;5.10;99.90;;;;;;4873519;29;20047;-82
2022/01/17 11:51:17;;;;;;;2.80;2.42;;;5.10;99.90;;;;;;4871208;29;20051;-83
2022/01/17 11:54:24;;;;;;;2.42;1.90;;;5.00;99.90;;;;;;4871544;29;20065;-81
2022/01/17 11:57:20;;;;;;;5.10;2.50;;;5.10;99.90;;;;;;4867738;29;20052;-83
2022/01/17 12:00:28;;;;;;;6.05;2.63;;;5.10;99.90;;;;;;4871627;29;20367;-81
2022/01/17 12:03:30;;;;;;;3.85;3.05;;;5.20;99.90;;;;;;4858973;29;20181;-81
2022/01/17 12:06:26;;;;;;;2.45;2.25;;;5.20;99.90;;;;;;4877200;29;20079;-81
2022/01/17 12:09:29;;;;;;;2.37;2.17;;;5.30;99.90;;;;;;4872987;29;20467;-83
2022/01/17 12:12:17;;;;;;;2.40;2.20;;;5.50;99.90;;;;;;4883752;29;20395;-80
2022/01/17 12:15:12;;;;;;;2.88;2.10;;;5.50;99.90;;;;;;4883128;29;20057;-83
2022/01/17 12:18:31;;;;;;;2.92;2.15;;;5.40;99.90;;;;;;4867627;29;20130;-82
2022/01/17 12:21:40;;;;;;;3.22;1.90;;;5.40;99.90;;;;;;4866689;29;20048;-81
2022/01/17 12:24:34;;;;;;;2.00;1.70;;;5.50;99.90;;;;;;4883125;29;20055;-79
2022/01/17 12:27:31;;;;;;;1.60;1.50;;;5.50;99.90;;;;;;4887983;29;20058;-80
2022/01/17 12:30:21;;;;;;;2.15;1.85;;;5.50;99.90;;;;;;4872523;29;20056;-81
2022/01/17 12:33:29;;;;;;;2.30;1.90;;;5.50;99.90;;;;;;4871830;29;20068;-82
2022/01/17 12:36:31;;;;;;;2.00;1.85;;;5.50;99.90;;;;;;4882823;29;20059;-83
2022/01/17 12:39:25;;;;;;;2.10;1.80;;;5.50;99.90;;;;;;4868188;29;20045;-81
2022/01/17 12:42:14;;;;;;;1.90;1.73;;;5.30;99.90;;;;;;4870364;29;20200;-82
2022/01/17 12:45:51;;;;;;;2.55;1.50;;;5.30;99.90;;;;;;4863470;29;20066;-83
2022/01/17 12:48:48;;;;;;;1.60;1.50;;;5.30;99.90;;;;;;4871617;29;20041;-81
2022/01/17 12:51:45;;;;;;;;;;;5.20;99.90;;;;;;4872310;29;20044;-83
2022/01/17 12:54:35;;;;;;;2.05;1.67;;;5.10;99.90;;;;;;4871730;29;19931;-80
2022/01/17 12:57:28;;;;;;;2.10;1.90;;;5.20;99.90;;;;;;4864450;29;20518;-80
2022/01/17 13:00:23;;;;;;;;;;;5.20;99.90;;;;;;4882630;29;20041;-82
2022/01/17 13:03:14;;;;;;;1.60;1.50;;;5.20;99.90;;;;;;4885250;29;19946;-80
2022/01/17 13:06:09;;;;;;;1.70;1.60;;;5.20;99.90;;;;;;4873440;29;20131;-81
2022/01/17 13:09:01;;;;;;;3.97;1.90;;;5.30;99.90;;;;;;4875680;29;20140;-81
2022/01/17 13:11:50;;;;;;;2.30;1.70;;;5.40;99.90;;;;;;4871772;29;20041;-83
2022/01/17 13:14:41;;;;;;;2.78;1.70;;;5.60;99.90;;;;;;4874584;29;20402;-82
2022/01/17 13:17:32;;;;;;;2.75;2.10;;;5.80;99.90;;;;;;4844159;29;20037;-82
2022/01/17 13:20:25;;;;;;;4.15;2.30;;;5.90;99.90;;;;;;4871183;29;20041;-83
2022/01/17 13:23:17;;;;;;;2.72;2.03;;;6.00;99.90;;;;;;4874255;29;20063;-82
2022/01/17 13:26:15;;;;;;;2.20;2.00;;;6.00;99.90;;;;;;4873187;29;20049;-84
2022/01/17 13:29:06;;;;;;;2.33;1.95;;;6.00;99.90;;;;;;4892218;29;20045;-84
2022/01/17 13:32:00;;;;;;;2.38;2.17;;;5.90;99.90;;;;;;4872668;29;20508;-82
2022/01/17 13:34:48;;;;;;;2.70;2.38;;;5.70;99.90;;;;;;4889156;29;20037;-82
2022/01/17 13:37:39;;;;;;;2.65;2.40;;;5.80;99.90;;;;;;4858968;29;20480;-82
2022/01/17 13:40:37;;;;;;;3.72;2.08;;;5.70;99.90;;;;;;4888996;29;20412;-82
2022/01/17 13:43:24;;;;;;;3.67;2.50;;;5.60;99.90;;;;;;4884750;29;20041;-82
2022/01/17 13:46:11;;;;;;;2.63;2.35;;;5.60;99.90;;;;;;4870360;29;20490;-81
2022/01/17 13:49:02;;;;;;;5.45;2.50;;;5.60;99.90;;;;;;4868331;29;20503;-81
2022/01/17 13:51:52;;;;;;;4.85;2.80;;;5.50;99.90;;;;;;4879122;29;20455;-80
2022/01/17 13:54:51;;;;;;;5.18;2.20;;;5.30;99.90;;;;;;4888534;29;20045;-83
2022/01/17 13:57:59;;;;;;;;;;;5.20;99.90;;;;;;4874702;29;20208;-81
2022/01/17 14:00:53;;;;;;;3.22;2.40;;;5.20;99.90;;;;;;4876383;29;19923;-81
2022/01/17 14:03:45;;;;;;;2.93;2.57;;;5.10;99.90;;;;;;4871935;29;20053;-81
2022/01/17 14:06:34;;;;;;;2.57;2.20;;;4.80;99.90;;;;;;4869602;29;20064;-82
2022/01/17 14:09:45;;;;;;;7.15;3.38;;;4.60;99.90;;;;;;4886486;29;20127;-81
2022/01/17 14:12:35;;;;;;;4.55;3.40;;;4.40;99.90;;;;;;4871524;29;20135;-83
2022/01/17 14:15:33;;;;;;;3.97;3.05;;;4.30;99.90;;;;;;4883483;29;20041;-82
2022/01/17 14:18:24;;;;;;;4.88;3.03;;;4.20;99.90;;;;;;4875116;29;20069;-82
2022/01/17 14:21:36;;;;;;;5.28;3.28;;;4.10;99.90;;;;;;4860946;29;20052;-82
2022/01/17 14:24:34;;;;;;;5.05;3.42;;;4.10;99.90;;;;;;4876739;29;20041;-81
2022/01/17 14:27:22;;;;;;;3.60;3.10;;;4.00;99.90;;;;;;4871070;29;20071;-81
2022/01/17 14:30:10;;;;;;;4.55;3.22;;;4.00;99.90;;;;;;4868187;29;20048;-82
2022/01/17 14:33:19;;;;;;;4.47;2.95;;;4.00;99.90;;;;;;4883957;29;20049;-81
2022/01/17 14:36:12;;;;;;;4.20;2.72;;;4.00;99.90;;;;;;4885151;29;20056;-81
2022/01/17 14:39:05;;;;;;;3.35;2.70;;;4.10;99.90;;;;;;4872612;29;20081;-80
2022/01/17 14:41:52;;;;;;;3.70;2.92;;;4.10;99.90;;;;;;4871500;29;20059;-80
2022/01/17 14:44:50;;;;;;;6.55;3.20;;;4.10;99.90;;;;;;4869973;29;20048;-81
2022/01/17 14:47:41;;;;;;;5.80;3.30;;;4.20;99.90;;;;;;4882703;29;20630;-81
2022/01/17 14:50:32;;;;;;;4.63;3.10;;;4.20;99.90;;;;;;4871677;29;20128;-79
2022/01/17 14:53:21;;;;;;;4.90;3.63;;;4.20;99.90;;;;;;4864165;29;20102;-80
2022/01/17 14:59:40;;;;;;;6.40;3.88;;;4.20;99.90;;;;;;4891118;29;21279;-80
2022/01/17 15:02:29;;;;;;;5.78;3.58;;;4.20;99.90;;;;;;4884475;29;20060;-81
2022/01/17 15:05:19;;;;;;;4.63;3.75;;;4.20;99.90;;;;;;4885605;29;20057;-81
2022/01/17 15:08:11;;;;;;;8.00;3.63;;;4.10;99.90;;;;;;4885474;29;20049;-80
2022/01/17 15:11:01;;;;;;;6.75;4.10;;;4.10;99.90;;;;;;4875352;29;20127;-79
2022/01/17 15:13:48;;;;;;;6.45;3.53;;;4.00;99.90;;;;;;4878567;29;20149;-77
2022/01/17 15:16:37;;;;;;;8.60;3.80;;;4.00;99.90;;;;;;4857124;29;20053;-78
2022/01/17 15:19:26;;;;;;;10.38;4.18;;;4.10;99.90;;;;;;4883652;29;20048;-80
2022/01/17 15:22:14;;;;;;;6.88;3.85;;;4.00;99.90;;;;;;4884324;29;20060;-81
2022/01/17 15:25:06;;;;;;;5.93;4.00;;;4.00;99.90;;;;;;4875021;29;20048;-80
2022/01/17 15:27:54;;;;;;;6.50;4.65;;;3.90;99.90;;;;;;4863703;29;20063;-82
2022/01/17 15:30:42;;;;;;;6.97;4.75;;;3.90;99.90;;;;;;4872809;29;20052;-80
2022/01/17 15:33:29;;;;;;;7.38;4.72;;;3.80;99.90;;;;;;4871596;29;20185;-80
2022/01/17 15:36:17;;;;;;;7.68;5.85;;;3.70;99.90;;;;;;4871162;29;20403;-80
2022/01/17 15:39:06;;;;;;;8.63;6.45;;;3.60;99.90;;;;;;4885321;29;20072;-81
2022/01/17 15:41:55;;;;;;;10.20;6.88;;;3.60;99.90;;;;;;4874714;29;20100;-80
2022/01/17 15:44:45;;;;;;;10.57;6.85;;;3.60;99.90;;;;;;4870827;29;20104;-80
2022/01/17 15:47:38;;;;;;;9.75;7.30;;;3.60;99.90;;;;;;4874402;29;20103;-81
2022/01/17 15:50:30;;;;;;;10.45;7.07;;;3.60;99.90;;;;;;4856042;29;20052;-80
2022/01/17 15:53:23;;;;;;;10.75;7.53;;;3.50;99.90;;;;;;4879408;29;20132;-82
2022/01/17 15:56:27;;;;;;;8.73;6.85;;;3.50;99.90;;;;;;4886068;29;20085;-80